sensor_id;sensor_type;location;lat;lon;timestamp;pressure;altitude;pressure_sealevel;temperature;humidity
5283;BME280;15376;48.540;9.268;2024-03-25T00:01:51;96821.66;;;4.46;100.00
5283;BME280;15376;48.540;9.268;2024-03-25T00:04:16;96818.69;;;4.41;100.00
5283;BME280;15376;48.540;9.268;2024-03-25T00:06:41;96825.59;;;4.42;100.00
5283;BME280;15376;48.540;9.268;2024-03-25T00:09:07;96828.88;;;4.44;100.00
5283;BME280;15376;48.540;9.268;2024-03-25T00:11:38;96823.13;;;4.40;100.00
5283;BME280;15376;48.540;9.268;2024-03-25T00:14:04;96820.69;;;4.39;100.00
5283;BME280;15376;48.540;9.268;2024-03-25T00:16:29;96822.94;;;4.42;100.00
5283;BME280;15376;48.540;9.268;2024-03-25T00:18:54;96828.72;;;4.37;100.00
5283;BME280;15376;48.540;9.268;2024-03-25T00:21:20;96828.56;;;4.39;100.00
5283;BME280;15376;48.540;9.268;2024-03-25T00:23:45;96823.78;;;4.34;100.00
5283;BME280;15376;48.540;9.268;2024-03-25T00:26:11;96822.47;;;4.38;100.00
5283;BME280;15376;48.540;9.268;2024-03-25T00:28:36;96825.94;;;4.39;100.00
5283;BME280;15376;48.540;9.268;2024-03-25T00:31:02;96812.91;;;4.29;100.00
5283;BME280;15376;48.540;9.268;2024-03-25T00:33:27;96819.34;;;4.34;100.00
5283;BME280;15376;48.540;9.268;2024-03-25T00:35:53;96824.94;;;4.31;100.00
5283;BME280;15376;48.540;9.268;2024-03-25T00:38:18;96807.78;;;4.19;100.00
5283;BME280;15376;48.540;9.268;2024-03-25T00:40:44;96821.78;;;4.28;100.00
5283;BME280;15376;48.540;9.268;2024-03-25T00:43:09;96824.25;;;4.29;100.00
5283;BME280;15376;48.540;9.268;2024-03-25T00:45:35;96821.78;;;4.28;100.00
5283;BME280;15376;48.540;9.268;2024-03-25T00:48:00;96818.66;;;4.24;100.00
5283;BME280;15376;48.540;9.268;2024-03-25T00:50:26;96820.47;;;4.24;100.00
5283;BME280;15376;48.540;9.268;2024-03-25T00:52:52;96813.41;;;4.24;100.00
5283;BME280;15376;48.540;9.268;2024-03-25T00:55:17;96798.94;;;4.20;100.00
5283;BME280;15376;48.540;9.268;2024-03-25T00:57:42;96813.72;;;4.21;100.00
5283;BME280;15376;48.540;9.268;2024-03-25T01:00:09;96812.06;;;4.20;100.00
5283;BME280;15376;48.540;9.268;2024-03-25T01:02:34;96806.81;;;4.20;100.00
5283;BME280;15376;48.540;9.268;2024-03-25T01:05:00;96810.09;;;4.22;100.00
5283;BME280;15376;48.540;9.268;2024-03-25T01:07:25;96794.16;;;4.16;100.00
5283;BME280;15376;48.540;9.268;2024-03-25T01:09:51;96808.47;;;4.21;100.00
5283;BME280;15376;48.540;9.268;2024-03-25T01:12:16;96798.63;;;4.23;100.00
5283;BME280;15376;48.540;9.268;2024-03-25T01:14:41;96797.94;;;4.21;100.00
5283;BME280;15376;48.540;9.268;2024-03-25T01:17:07;96793.00;;;4.18;100.00
5283;BME280;15376;48.540;9.268;2024-03-25T01:19:32;96800.41;;;4.23;100.00
5283;BME280;15376;48.540;9.268;2024-03-25T01:21:57;96808.47;;;4.21;100.00
5283;BME280;15376;48.540;9.268;2024-03-25T01:24:23;96801.25;;;4.23;100.00
5283;BME280;15376;48.540;9.268;2024-03-25T01:26:48;96800.75;;;4.20;100.00
5283;BME280;15376;48.540;9.268;2024-03-25T01:29:13;96793.34;;;4.15;100.00
5283;BME280;15376;48.540;9.268;2024-03-25T01:31:39;96795.66;;;4.18;100.00
5283;BME280;15376;48.540;9.268;2024-03-25T01:34:04;96796.63;;;4.17;100.00
5283;BME280;15376;48.540;9.268;2024-03-25T01:36:30;96795.66;;;4.18;100.00
5283;BME280;15376;48.540;9.268;2024-03-25T01:38:56;96782.78;;;4.07;100.00
5283;BME280;15376;48.540;9.268;2024-03-25T01:41:22;96792.03;;;4.19;100.00
5283;BME280;15376;48.540;9.268;2024-03-25T01:43:48;96788.09;;;4.23;100.00
5283;BME280;15376;48.540;9.268;2024-03-25T01:46:14;96794.66;;;4.19;100.00
5283;BME280;15376;48.540;9.268;2024-03-25T01:48:41;96790.72;;;4.23;100.00
5283;BME280;15376;48.540;9.268;2024-03-25T01:51:07;96797.78;;;4.23;100.00
5283;BME280;15376;48.540;9.268;2024-03-25T01:53:32;96785.44;;;4.15;100.00
5283;BME280;15376;48.540;9.268;2024-03-25T01:55:58;96774.91;;;4.07;100.00
5283;BME280;15376;48.540;9.268;2024-03-25T01:58:25;96802.38;;;4.21;100.00
5283;BME280;15376;48.540;9.268;2024-03-25T02:00:53;96799.59;;;4.22;100.00
5283;BME280;15376;48.540;9.268;2024-03-25T02:03:19;96801.09;;;4.25;100.00
5283;BME280;15376;48.540;9.268;2024-03-25T02:05:45;96806.50;;;4.23;100.00
5283;BME280;15376;48.540;9.268;2024-03-25T02:08:11;96794.84;;;4.26;100.00
5283;BME280;15376;48.540;9.268;2024-03-25T02:10:38;96792.69;;;4.21;100.00
5283;BME280;15376;48.540;9.268;2024-03-25T02:13:03;96789.09;;;4.22;100.00
5283;BME280;15376;48.540;9.268;2024-03-25T02:15:29;96787.13;;;4.24;100.00
5283;BME280;15376;48.540;9.268;2024-03-25T02:17:54;96768.22;;;4.21;100.00
5283;BME280;15376;48.540;9.268;2024-03-25T02:20:20;96777.75;;;4.22;100.00
5283;BME280;15376;48.540;9.268;2024-03-25T02:22:45;96772.66;;;4.20;100.00
5283;BME280;15376;48.540;9.268;2024-03-25T02:25:10;96776.59;;;4.24;100.00
5283;BME280;15376;48.540;9.268;2024-03-25T02:27:37;96781.88;;;4.24;100.00
5283;BME280;15376;48.540;9.268;2024-03-25T02:30:09;96766.41;;;4.21;100.00
5283;BME280;15376;48.540;9.268;2024-03-25T02:32:39;96754.44;;;4.19;100.00
5283;BME280;15376;48.540;9.268;2024-03-25T02:35:09;96747.69;;;4.16;100.00
5283;BME280;15376;48.540;9.268;2024-03-25T02:37:36;96758.56;;;4.29;100.00
5283;BME280;15376;48.540;9.268;2024-03-25T02:40:03;96737.19;;;4.16;100.00
5283;BME280;15376;48.540;9.268;2024-03-25T02:42:31;96751.66;;;4.28;100.00
5283;BME280;15376;48.540;9.268;2024-03-25T02:44:56;96749.84;;;4.29;100.00
5283;BME280;15376;48.540;9.268;2024-03-25T02:47:22;96762.16;;;4.28;100.00
5283;BME280;15376;48.540;9.268;2024-03-25T02:49:48;96770.72;;;4.30;100.00
5283;BME280;15376;48.540;9.268;2024-03-25T02:52:13;96752.28;;;4.14;100.00
5283;BME280;15376;48.540;9.268;2024-03-25T02:54:39;96774.47;;;4.28;100.00
5283;BME280;15376;48.540;9.268;2024-03-25T02:57:04;96749.66;;;4.14;100.00
5283;BME280;15376;48.540;9.268;2024-03-25T02:59:30;96768.41;;;4.27;100.00
5283;BME280;15376;48.540;9.268;2024-03-25T03:01:55;96759.69;;;4.19;100.00
5283;BME280;15376;48.540;9.268;2024-03-25T03:04:20;96743.56;;;4.14;100.00
5283;BME280;15376;48.540;9.268;2024-03-25T03:06:45;96763.78;;;4.21;100.00
5283;BME280;15376;48.540;9.268;2024-03-25T03:09:11;96756.06;;;4.20;100.00
5283;BME280;15376;48.540;9.268;2024-03-25T03:11:36;96757.84;;;4.11;100.00
5283;BME280;15376;48.540;9.268;2024-03-25T03:14:02;96761.47;;;4.18;100.00
5283;BME280;15376;48.540;9.268;2024-03-25T03:16:28;96753.22;;;4.05;100.00
5283;BME280;15376;48.540;9.268;2024-03-25T03:18:54;96761.81;;;4.15;100.00
5283;BME280;15376;48.540;9.268;2024-03-25T03:21:19;96764.28;;;4.17;100.00
5283;BME280;15376;48.540;9.268;2024-03-25T03:23:45;96748.97;;;4.04;100.00
5283;BME280;15376;48.540;9.268;2024-03-25T03:26:10;96769.38;;;4.18;100.00
5283;BME280;15376;48.540;9.268;2024-03-25T03:28:35;96772.31;;;4.15;100.00
5283;BME280;15376;48.540;9.268;2024-03-25T03:31:01;96764.59;;;4.14;100.00
5283;BME280;15376;48.540;9.268;2024-03-25T03:33:26;96767.38;;;4.12;100.00
5283;BME280;15376;48.540;9.268;2024-03-25T03:35:52;96763.78;;;4.13;100.00
5283;BME280;15376;48.540;9.268;2024-03-25T03:38:17;96762.44;;;4.09;100.00
5283;BME280;15376;48.540;9.268;2024-03-25T03:40:46;96748.13;;;4.03;100.00
5283;BME280;15376;48.540;9.268;2024-03-25T03:43:20;96764.75;;;4.12;100.00
5283;BME280;15376;48.540;9.268;2024-03-25T03:45:45;96760.97;;;4.07;100.00
5283;BME280;15376;48.540;9.268;2024-03-25T03:48:10;96746.34;;;3.96;100.00
5283;BME280;15376;48.540;9.268;2024-03-25T03:50:36;96750.94;;;4.02;100.00
5283;BME280;15376;48.540;9.268;2024-03-25T03:53:01;96760.28;;;4.05;100.00
5283;BME280;15376;48.540;9.268;2024-03-25T03:55:26;96768.00;;;4.06;100.00
5283;BME280;15376;48.540;9.268;2024-03-25T03:57:52;96772.28;;;4.07;100.00
5283;BME280;15376;48.540;9.268;2024-03-25T04:00:17;96773.28;;;4.06;100.00
5283;BME280;15376;48.540;9.268;2024-03-25T04:02:43;96772.44;;;4.06;100.00
5283;BME280;15376;48.540;9.268;2024-03-25T04:05:08;96761.78;;;3.99;100.00
5283;BME280;15376;48.540;9.268;2024-03-25T04:07:33;96776.56;;;4.08;100.00
5283;BME280;15376;48.540;9.268;2024-03-25T04:09:59;96786.72;;;4.03;100.00
5283;BME280;15376;48.540;9.268;2024-03-25T04:12:25;96779.66;;;4.03;100.00
5283;BME280;15376;48.540;9.268;2024-03-25T04:14:50;96775.06;;;4.06;100.00
5283;BME280;15376;48.540;9.268;2024-03-25T04:17:20;96765.88;;;4.01;100.00
5283;BME280;15376;48.540;9.268;2024-03-25T04:19:46;96769.66;;;4.07;100.00
5283;BME280;15376;48.540;9.268;2024-03-25T04:22:12;96771.31;;;4.08;100.00
5283;BME280;15376;48.540;9.268;2024-03-25T04:24:37;96762.75;;;4.06;100.00
5283;BME280;15376;48.540;9.268;2024-03-25T04:27:02;96767.69;;;4.09;100.00
5283;BME280;15376;48.540;9.268;2024-03-25T04:29:28;96757.00;;;4.02;100.00
5283;BME280;15376;48.540;9.268;2024-03-25T04:31:54;96749.63;;;3.98;100.00
5283;BME280;15376;48.540;9.268;2024-03-25T04:34:20;96763.06;;;4.03;100.00
5283;BME280;15376;48.540;9.268;2024-03-25T04:36:46;96753.91;;;4.07;100.00
5283;BME280;15376;48.540;9.268;2024-03-25T04:39:11;96752.25;;;4.06;100.00
5283;BME280;15376;48.540;9.268;2024-03-25T04:41:36;96721.34;;;3.84;100.00
5283;BME280;15376;48.540;9.268;2024-03-25T04:44:02;96744.03;;;4.01;100.00
5283;BME280;15376;48.540;9.268;2024-03-25T04:46:27;96758.13;;;4.00;100.00
5283;BME280;15376;48.540;9.268;2024-03-25T04:48:52;96755.72;;;3.98;100.00
5283;BME280;15376;48.540;9.268;2024-03-25T04:51:19;96759.16;;;3.99;100.00
5283;BME280;15376;48.540;9.268;2024-03-25T04:53:44;96748.31;;;3.94;100.00
5283;BME280;15376;48.540;9.268;2024-03-25T04:56:09;96755.50;;;4.00;100.00
5283;BME280;15376;48.540;9.268;2024-03-25T04:58:35;96754.38;;;3.94;100.00
5283;BME280;15376;48.540;9.268;2024-03-25T05:01:00;96760.97;;;3.98;100.00
5283;BME280;15376;48.540;9.268;2024-03-25T05:03:26;96752.72;;;3.93;100.00
5283;BME280;15376;48.540;9.268;2024-03-25T05:05:51;96762.75;;;3.98;100.00
5283;BME280;15376;48.540;9.268;2024-03-25T05:08:16;96759.44;;;3.88;100.00
5283;BME280;15376;48.540;9.268;2024-03-25T05:10:42;96765.03;;;3.93;100.00
5283;BME280;15376;48.540;9.268;2024-03-25T05:13:07;96763.38;;;3.84;100.00
5283;BME280;15376;48.540;9.268;2024-03-25T05:15:32;96772.25;;;3.91;100.00
5283;BME280;15376;48.540;9.268;2024-03-25T05:17:58;96757.13;;;3.85;100.00
5283;BME280;15376;48.540;9.268;2024-03-25T05:20:23;96770.97;;;3.95;100.00
5283;BME280;15376;48.540;9.268;2024-03-25T05:22:49;96750.53;;;3.81;100.00
5283;BME280;15376;48.540;9.268;2024-03-25T05:25:14;96766.34;;;3.89;100.00
5283;BME280;15376;48.540;9.268;2024-03-25T05:27:39;96779.81;;;3.94;100.00
5283;BME280;15376;48.540;9.268;2024-03-25T05:30:05;96776.22;;;3.95;100.00
5283;BME280;15376;48.540;9.268;2024-03-25T05:32:31;96775.53;;;4.01;100.00
5283;BME280;15376;48.540;9.268;2024-03-25T05:34:56;96757.47;;;3.90;100.00
5283;BME280;15376;48.540;9.268;2024-03-25T05:37:21;96773.59;;;3.95;100.00
5283;BME280;15376;48.540;9.268;2024-03-25T05:39:47;96786.56;;;4.05;100.00
5283;BME280;15376;48.540;9.268;2024-03-25T05:42:12;96780.81;;;4.01;100.00
5283;BME280;15376;48.540;9.268;2024-03-25T05:44:38;96771.44;;;3.90;100.00
5283;BME280;15376;48.540;9.268;2024-03-25T05:47:03;96776.22;;;3.95;100.00
5283;BME280;15376;48.540;9.268;2024-03-25T05:49:28;96778.84;;;3.95;100.00
5283;BME280;15376;48.540;9.268;2024-03-25T05:51:54;96779.13;;;3.84;100.00
5283;BME280;15376;48.540;9.268;2024-03-25T05:54:19;96781.75;;;3.84;100.00
5283;BME280;15376;48.540;9.268;2024-03-25T05:56:44;96783.38;;;3.85;100.00
5283;BME280;15376;48.540;9.268;2024-03-25T05:59:10;96785.69;;;3.88;100.00
5283;BME280;15376;48.540;9.268;2024-03-25T06:01:35;96764.66;;;3.80;100.00
5283;BME280;15376;48.540;9.268;2024-03-25T06:04:03;96786.72;;;3.95;100.00
5283;BME280;15376;48.540;9.268;2024-03-25T06:06:28;96773.09;;;4.08;100.00
5283;BME280;15376;48.540;9.268;2024-03-25T06:08:53;96763.94;;;4.12;100.00
5283;BME280;15376;48.540;9.268;2024-03-25T06:11:19;96775.63;;;4.42;100.00
5283;BME280;15376;48.540;9.268;2024-03-25T06:13:47;96771.72;;;4.54;100.00
5283;BME280;15376;48.540;9.268;2024-03-25T06:16:13;96768.63;;;4.75;100.00
5283;BME280;15376;48.540;9.268;2024-03-25T06:18:39;96767.13;;;4.80;100.00
5283;BME280;15376;48.540;9.268;2024-03-25T06:21:05;96766.97;;;4.90;100.00
5283;BME280;15376;48.540;9.268;2024-03-25T06:23:30;96757.91;;;5.00;100.00
5283;BME280;15376;48.540;9.268;2024-03-25T06:25:56;96771.03;;;5.25;100.00
5283;BME280;15376;48.540;9.268;2024-03-25T06:28:21;96770.00;;;5.50;100.00
5283;BME280;15376;48.540;9.268;2024-03-25T06:30:47;96769.66;;;5.53;100.00
5283;BME280;15376;48.540;9.268;2024-03-25T06:33:32;96772.63;;;5.58;100.00
5283;BME280;15376;48.540;9.268;2024-03-25T06:36:16;96773.56;;;5.65;100.00
5283;BME280;15376;48.540;9.268;2024-03-25T06:38:42;96771.09;;;5.64;100.00
5283;BME280;15376;48.540;9.268;2024-03-25T06:41:08;96767.28;;;5.66;100.00
5283;BME280;15376;48.540;9.268;2024-03-25T06:43:34;96751.47;;;5.75;100.00
5283;BME280;15376;48.540;9.268;2024-03-25T06:45:59;96786.59;;;6.06;100.00
5283;BME280;15376;48.540;9.268;2024-03-25T06:48:25;96780.44;;;6.22;100.00
5283;BME280;15376;48.540;9.268;2024-03-25T06:50:55;96770.63;;;6.39;99.18
5283;BME280;15376;48.540;9.268;2024-03-25T06:53:20;96765.56;;;6.29;98.17
5283;BME280;15376;48.540;9.268;2024-03-25T06:58:18;96770.63;;;6.39;96.64
5283;BME280;15376;48.540;9.268;2024-03-25T07:00:44;96792.28;;;6.26;97.52
5283;BME280;15376;48.540;9.268;2024-03-25T07:03:09;96779.91;;;6.26;97.31
5283;BME280;15376;48.540;9.268;2024-03-25T07:05:34;96786.97;;;6.34;98.17
5283;BME280;15376;48.540;9.268;2024-03-25T07:08:00;96793.72;;;6.37;97.66
5283;BME280;15376;48.540;9.268;2024-03-25T07:10:25;96798.03;;;6.29;97.66
5283;BME280;15376;48.540;9.268;2024-03-25T07:12:50;96800.38;;;6.24;99.20
5283;BME280;15376;48.540;9.268;2024-03-25T07:15:16;96804.47;;;6.27;98.11
5283;BME280;15376;48.540;9.268;2024-03-25T07:17:41;96795.09;;;6.24;98.64
5283;BME280;15376;48.540;9.268;2024-03-25T07:20:07;96790.97;;;6.22;98.04
5283;BME280;15376;48.540;9.268;2024-03-25T07:22:33;96769.16;;;6.05;98.42
5283;BME280;15376;48.540;9.268;2024-03-25T07:24:59;96780.78;;;6.19;96.38
5283;BME280;15376;48.540;9.268;2024-03-25T07:27:24;96779.97;;;6.18;97.19
5283;BME280;15376;48.540;9.268;2024-03-25T07:29:49;96779.31;;;6.16;97.60
5283;BME280;15376;48.540;9.268;2024-03-25T07:32:16;96772.50;;;6.30;97.06
5283;BME280;15376;48.540;9.268;2024-03-25T07:34:41;96769.00;;;6.38;96.21
5283;BME280;15376;48.540;9.268;2024-03-25T07:37:07;96748.06;;;6.36;96.15
5283;BME280;15376;48.540;9.268;2024-03-25T07:39:32;96778.38;;;6.63;94.34
5283;BME280;15376;48.540;9.268;2024-03-25T07:41:57;96769.69;;;6.77;94.45
5283;BME280;15376;48.540;9.268;2024-03-25T07:44:24;96768.63;;;6.86;94.14
5283;BME280;15376;48.540;9.268;2024-03-25T07:46:50;96775.31;;;6.97;93.10
5283;BME280;15376;48.540;9.268;2024-03-25T07:49:15;96770.84;;;6.97;94.23
5283;BME280;15376;48.540;9.268;2024-03-25T07:51:40;96776.41;;;7.02;93.79
5283;BME280;15376;48.540;9.268;2024-03-25T07:54:06;96766.13;;;6.70;95.01
5283;BME280;15376;48.540;9.268;2024-03-25T07:56:31;96767.09;;;6.92;93.50
5283;BME280;15376;48.540;9.268;2024-03-25T07:59:02;96761.06;;;6.83;93.36
5283;BME280;15376;48.540;9.268;2024-03-25T08:01:27;96768.38;;;6.96;94.00
5283;BME280;15376;48.540;9.268;2024-03-25T08:03:54;96772.53;;;7.13;92.82
5283;BME280;15376;48.540;9.268;2024-03-25T08:06:19;96749.13;;;7.10;93.93
5283;BME280;15376;48.540;9.268;2024-03-25T08:08:46;96769.06;;;7.13;92.78
5283;BME280;15376;48.540;9.268;2024-03-25T08:11:12;96761.78;;;7.15;93.95
5283;BME280;15376;48.540;9.268;2024-03-25T08:13:37;96761.91;;;6.98;93.54
5283;BME280;15376;48.540;9.268;2024-03-25T08:16:03;96763.78;;;7.13;94.46
5283;BME280;15376;48.540;9.268;2024-03-25T08:18:28;96754.00;;;6.98;93.77
5283;BME280;15376;48.540;9.268;2024-03-25T08:20:54;96736.16;;;7.00;92.49
5283;BME280;15376;48.540;9.268;2024-03-25T08:23:19;96751.41;;;7.28;93.19
5283;BME280;15376;48.540;9.268;2024-03-25T08:25:45;96752.91;;;7.45;93.21
5283;BME280;15376;48.540;9.268;2024-03-25T08:28:10;96754.81;;;7.51;91.15
5283;BME280;15376;48.540;9.268;2024-03-25T08:30:35;96751.41;;;7.28;91.86
5283;BME280;15376;48.540;9.268;2024-03-25T08:33:01;96748.91;;;7.49;92.04
5283;BME280;15376;48.540;9.268;2024-03-25T08:35:27;96749.44;;;7.59;90.90
5283;BME280;15376;48.540;9.268;2024-03-25T08:37:52;96727.56;;;7.65;92.11
5283;BME280;15376;48.540;9.268;2024-03-25T08:40:18;96739.91;;;8.09;92.46
5283;BME280;15376;48.540;9.268;2024-03-25T08:42:43;96716.19;;;8.01;90.40
5283;BME280;15376;48.540;9.268;2024-03-25T08:45:09;96732.22;;;8.14;91.79
5283;BME280;15376;48.540;9.268;2024-03-25T08:47:34;96727.31;;;8.11;88.40
5283;BME280;15376;48.540;9.268;2024-03-25T08:49:59;96726.94;;;8.14;89.00
5283;BME280;15376;48.540;9.268;2024-03-25T08:52:24;96706.69;;;8.21;88.74
5283;BME280;15376;48.540;9.268;2024-03-25T08:54:50;96712.31;;;8.54;88.56
5283;BME280;15376;48.540;9.268;2024-03-25T08:57:15;96719.44;;;8.75;87.93
5283;BME280;15376;48.540;9.268;2024-03-25T08:59:40;96680.88;;;8.45;85.59
5283;BME280;15376;48.540;9.268;2024-03-25T09:02:06;96709.91;;;8.81;87.64
5283;BME280;15376;48.540;9.268;2024-03-25T09:04:33;96698.00;;;8.91;84.33
5283;BME280;15376;48.540;9.268;2024-03-25T09:06:58;96700.50;;;8.99;83.21
5283;BME280;15376;48.540;9.268;2024-03-25T09:09:23;96702.31;;;9.27;83.28
5283;BME280;15376;48.540;9.268;2024-03-25T09:12:07;96693.59;;;9.33;82.64
5283;BME280;15376;48.540;9.268;2024-03-25T09:14:33;96682.31;;;9.24;80.32
5283;BME280;15376;48.540;9.268;2024-03-25T09:16:58;96705.28;;;9.45;80.63
5283;BME280;15376;48.540;9.268;2024-03-25T09:19:24;96708.03;;;9.58;80.93
5283;BME280;15376;48.540;9.268;2024-03-25T09:21:49;96705.88;;;9.82;80.03
5283;BME280;15376;48.540;9.268;2024-03-25T09:24:14;96694.06;;;9.84;80.16
5283;BME280;15376;48.540;9.268;2024-03-25T09:26:40;96680.28;;;10.09;78.26
5283;BME280;15376;48.540;9.268;2024-03-25T09:29:05;96708.41;;;10.03;72.70
5283;BME280;15376;48.540;9.268;2024-03-25T09:31:31;96699.16;;;10.47;72.66
5283;BME280;15376;48.540;9.268;2024-03-25T09:33:56;96694.19;;;11.76;68.08
5283;BME280;15376;48.540;9.268;2024-03-25T09:36:22;96669.63;;;12.25;64.31
5283;BME280;15376;48.540;9.268;2024-03-25T09:38:47;96679.09;;;13.70;59.58
5283;BME280;15376;48.540;9.268;2024-03-25T09:41:12;96672.91;;;14.54;58.97
5283;BME280;15376;48.540;9.268;2024-03-25T09:43:44;96675.47;;;15.26;51.52
5283;BME280;15376;48.540;9.268;2024-03-25T09:46:13;96674.66;;;16.41;49.54
5283;BME280;15376;48.540;9.268;2024-03-25T09:48:39;96667.69;;;15.48;48.68
5283;BME280;15376;48.540;9.268;2024-03-25T09:51:05;96657.63;;;16.47;46.97
5283;BME280;15376;48.540;9.268;2024-03-25T09:53:31;96663.00;;;18.73;44.83
5283;BME280;15376;48.540;9.268;2024-03-25T09:55:57;96661.47;;;17.85;43.49
5283;BME280;15376;48.540;9.268;2024-03-25T09:58:26;96660.44;;;18.88;38.67
5283;BME280;15376;48.540;9.268;2024-03-25T10:00:52;96663.66;;;18.85;37.50
5283;BME280;15376;48.540;9.268;2024-03-25T10:03:18;96654.34;;;18.44;36.08
5283;BME280;15376;48.540;9.268;2024-03-25T10:05:44;96650.94;;;18.76;36.41
5283;BME280;15376;48.540;9.268;2024-03-25T10:08:09;96652.13;;;19.64;35.03
5283;BME280;15376;48.540;9.268;2024-03-25T10:10:35;96630.22;;;19.97;35.93
5283;BME280;15376;48.540;9.268;2024-03-25T10:13:05;96644.97;;;20.57;33.49
5283;BME280;15376;48.540;9.268;2024-03-25T10:15:31;96638.53;;;21.14;33.87
5283;BME280;15376;48.540;9.268;2024-03-25T10:17:57;96630.56;;;21.94;33.12
5283;BME280;15376;48.540;9.268;2024-03-25T10:20:22;96630.63;;;21.69;32.03
5283;BME280;15376;48.540;9.268;2024-03-25T10:22:48;96616.59;;;20.40;33.15
5283;BME280;15376;48.540;9.268;2024-03-25T10:25:29;96611.59;;;19.02;34.58
5283;BME280;15376;48.540;9.268;2024-03-25T10:27:59;96596.19;;;19.34;35.26
5283;BME280;15376;48.540;9.268;2024-03-25T10:30:26;96588.88;;;21.00;32.77
5283;BME280;15376;48.540;9.268;2024-03-25T10:33:01;96590.72;;;18.55;35.62
5283;BME280;15376;48.540;9.268;2024-03-25T10:35:29;96580.91;;;19.97;33.82
5283;BME280;15376;48.540;9.268;2024-03-25T10:37:58;96588.28;;;21.44;32.66
5283;BME280;15376;48.540;9.268;2024-03-25T10:40:27;96588.28;;;22.18;32.16
5283;BME280;15376;48.540;9.268;2024-03-25T10:42:58;96580.97;;;21.54;28.86
5283;BME280;15376;48.540;9.268;2024-03-25T10:45:25;96581.78;;;23.26;30.10
5283;BME280;15376;48.540;9.268;2024-03-25T10:47:55;96590.56;;;23.71;26.71
5283;BME280;15376;48.540;9.268;2024-03-25T10:50:25;96580.00;;;22.44;28.83
5283;BME280;15376;48.540;9.268;2024-03-25T10:52:53;96574.47;;;21.55;28.33
5283;BME280;15376;48.540;9.268;2024-03-25T10:55:19;96576.66;;;21.43;28.40
5283;BME280;15376;48.540;9.268;2024-03-25T10:57:45;96572.28;;;20.05;30.31
5283;BME280;15376;48.540;9.268;2024-03-25T11:00:12;96573.19;;;20.46;29.51
5283;BME280;15376;48.540;9.268;2024-03-25T11:02:41;96575.50;;;19.97;28.74
5283;BME280;15376;48.540;9.268;2024-03-25T11:05:07;96569.97;;;20.39;30.24
5283;BME280;15376;48.540;9.268;2024-03-25T11:07:34;96574.16;;;19.42;29.76
5283;BME280;15376;48.540;9.268;2024-03-25T11:10:06;96553.53;;;19.63;29.38
5283;BME280;15376;48.540;9.268;2024-03-25T11:12:35;96543.94;;;18.88;32.42
5283;BME280;15376;48.540;9.268;2024-03-25T11:15:10;96545.25;;;17.29;34.78
5283;BME280;15376;48.540;9.268;2024-03-25T11:17:36;96513.69;;;15.28;37.22
5283;BME280;15376;48.540;9.268;2024-03-25T11:20:12;96527.00;;;13.70;40.07
5283;BME280;15376;48.540;9.268;2024-03-25T11:22:51;96526.38;;;12.83;42.17
5283;BME280;15376;48.540;9.268;2024-03-25T11:25:17;96519.72;;;12.31;43.33
5283;BME280;15376;48.540;9.268;2024-03-25T11:27:47;96452.66;;;11.21;45.40
5283;BME280;15376;48.540;9.268;2024-03-25T11:30:13;96499.72;;;11.59;47.46
5283;BME280;15376;48.540;9.268;2024-03-25T11:32:51;96481.34;;;11.51;47.87
5283;BME280;15376;48.540;9.268;2024-03-25T11:35:16;96495.75;;;11.30;45.26
5283;BME280;15376;48.540;9.268;2024-03-25T11:37:42;96491.50;;;11.22;46.90
5283;BME280;15376;48.540;9.268;2024-03-25T11:40:09;96482.81;;;11.02;46.73
5283;BME280;15376;48.540;9.268;2024-03-25T11:42:46;96453.63;;;10.89;48.69
5283;BME280;15376;48.540;9.268;2024-03-25T11:45:21;96453.31;;;10.72;47.72
5283;BME280;15376;48.540;9.268;2024-03-25T11:47:48;96462.16;;;10.33;50.17
5283;BME280;15376;48.540;9.268;2024-03-25T11:50:18;96456.03;;;10.39;50.59
5283;BME280;15376;48.540;9.268;2024-03-25T11:52:44;96447.22;;;10.52;50.95
5283;BME280;15376;48.540;9.268;2024-03-25T11:55:10;96439.63;;;10.68;50.69
5283;BME280;15376;48.540;9.268;2024-03-25T11:57:37;96441.16;;;10.96;47.88
5283;BME280;15376;48.540;9.268;2024-03-25T12:00:03;96429.66;;;11.09;49.62
5283;BME280;15376;48.540;9.268;2024-03-25T12:02:31;96432.16;;;11.35;47.27
5283;BME280;15376;48.540;9.268;2024-03-25T12:04:56;96433.53;;;11.44;46.92
5283;BME280;15376;48.540;9.268;2024-03-25T12:07:21;96422.13;;;11.37;46.71
5283;BME280;15376;48.540;9.268;2024-03-25T12:09:47;96423.78;;;10.93;46.93
5283;BME280;15376;48.540;9.268;2024-03-25T12:12:32;96409.47;;;10.94;47.74
5283;BME280;15376;48.540;9.268;2024-03-25T12:14:57;96418.81;;;11.10;48.11
5283;BME280;15376;48.540;9.268;2024-03-25T12:17:23;96390.22;;;11.06;46.32
5283;BME280;15376;48.540;9.268;2024-03-25T12:20:05;96395.91;;;11.16;45.97
5283;BME280;15376;48.540;9.268;2024-03-25T12:22:31;96360.56;;;11.09;46.77
5283;BME280;15376;48.540;9.268;2024-03-25T12:24:59;96385.69;;;11.13;45.35
5283;BME280;15376;48.540;9.268;2024-03-25T12:27:25;96381.00;;;11.40;46.63
5283;BME280;15376;48.540;9.268;2024-03-25T12:30:19;96366.69;;;11.41;45.36
5283;BME280;15376;48.540;9.268;2024-03-25T12:32:45;96377.41;;;11.59;44.10
5283;BME280;15376;48.540;9.268;2024-03-25T12:35:15;96350.06;;;11.52;46.00
5283;BME280;15376;48.540;9.268;2024-03-25T12:37:43;96362.97;;;11.48;46.62
5283;BME280;15376;48.540;9.268;2024-03-25T12:40:10;96342.66;;;11.29;46.61
5283;BME280;15376;48.540;9.268;2024-03-25T12:42:36;96352.00;;;11.38;44.00
5283;BME280;15376;48.540;9.268;2024-03-25T12:45:03;96329.03;;;10.81;48.26
5283;BME280;15376;48.540;9.268;2024-03-25T12:47:29;96340.00;;;10.97;48.96
5283;BME280;15376;48.540;9.268;2024-03-25T12:49:56;96331.88;;;10.86;50.19
5283;BME280;15376;48.540;9.268;2024-03-25T12:52:22;96308.97;;;10.91;50.09
5283;BME280;15376;48.540;9.268;2024-03-25T12:54:47;96313.94;;;10.81;48.69
5283;BME280;15376;48.540;9.268;2024-03-25T12:57:12;96319.72;;;10.72;48.31
5283;BME280;15376;48.540;9.268;2024-03-25T12:59:38;96310.69;;;10.79;47.04
5283;BME280;15376;48.540;9.268;2024-03-25T13:02:03;96277.63;;;10.75;46.92
5283;BME280;15376;48.540;9.268;2024-03-25T13:04:29;96304.22;;;11.00;46.08
5283;BME280;15376;48.540;9.268;2024-03-25T13:06:54;96289.09;;;11.00;48.47
5283;BME280;15376;48.540;9.268;2024-03-25T13:09:20;96295.53;;;10.86;46.06
5283;BME280;15376;48.540;9.268;2024-03-25T13:11:45;96270.59;;;10.87;46.44